Terminal Aerodrome Forecast
Issued by NWS Upton, NY

Home | Current Version | Previous Version | Text Only | Print | Product List | Glossary On
Versions: 1 2 3 4 5 6 7 8 9 10 11 12 13 14 15 16 17 18 19 20 21 22 23 24 25 26 27 28 29 30
000
FTUS41 KOKX 020839 AAA
TAFJFK
TAF AMD
KJFK 020839Z 0209/0312 04006KT 1SM BR OVC003
     FM021400 11006KT 2SM BR OVC007
      TEMPO 0214/0216 4SM -RA BKN007
     FM021800 14007KT 6SM BR SCT009 BKN015
     FM022300 13005KT 3SM BR BKN009
     FM030300 10005KT 2SM BR OVC007
     FM030600 07006KT 2SM BR OVC005=

USA.gov is the U.S. government's official web portal to all federal, state and local government web resources and services.